Time;durP1;ratioP1;P1;durP2;ratioP2;P2;SDS_P1;SDS_P2;PMS_P1;PMS_P2;Temp;Humidity;BMP_temperature;BMP_pressure;BME280_temperature;BME280_humidity;BME280_pressure;Samples;Min_cycle;Max_cycle;Signal;HPM_P1;HPM_P2
2024/01/29 00:00:29;;;;;;;20.17;8.38;;;5.60;99.90;;;;;;5013492;28;20215;-71
2024/01/29 00:02:54;;;;;;;13.38;6.50;;;5.90;47.80;;;;;;5013714;28;20104;-71
2024/01/29 00:05:20;;;;;;;49.25;20.42;;;6.10;99.90;;;;;;5013685;28;20025;-70
2024/01/29 00:07:46;;;;;;;12.23;5.65;;;6.30;99.90;;;;;;5013338;28;20025;-70
2024/01/29 00:10:12;;;;;;;8.52;4.88;;;6.30;99.90;;;;;;5013302;28;20091;-71
2024/01/29 00:12:38;;;;;;;5.32;2.58;;;6.20;99.90;;;;;;5013365;28;20025;-71
2024/01/29 00:15:04;;;;;;;2.40;2.20;;;6.20;99.90;;;;;;5013731;28;20033;-71
2024/01/29 00:17:30;;;;;;;3.17;2.20;;;6.10;99.90;;;;;;5013101;28;20117;-71
2024/01/29 00:19:55;;;;;;;3.30;2.33;;;6.20;99.90;;;;;;5013086;28;20160;-71
2024/01/29 00:22:21;;;;;;;3.28;2.33;;;6.20;99.90;;;;;;5013513;28;20026;-70
2024/01/29 00:24:46;;;;;;;3.28;2.22;;;6.20;99.90;;;;;;5013631;28;20040;-71
2024/01/29 00:27:12;;;;;;;4.05;2.78;;;6.20;99.90;;;;;;5013523;28;20034;-70
2024/01/29 00:29:38;;;;;;;21.48;12.07;;;6.30;99.90;;;;;;5013149;28;20488;-71
2024/01/29 00:32:04;;;;;;;26.00;14.18;;;6.40;99.90;;;;;;5013041;28;20120;-71
2024/01/29 00:34:29;;;;;;;22.42;11.70;;;6.40;99.90;;;;;;5013431;28;20045;-71
2024/01/29 00:36:55;;;;;;;14.20;7.25;;;6.50;1.00;;;;;;5013362;28;20029;-71
2024/01/29 00:39:20;;;;;;;10.95;5.93;;;6.50;99.90;;;;;;5013322;28;20072;-71
2024/01/29 00:41:46;;;;;;;5.72;2.92;;;6.50;73.60;;;;;;5013451;28;20030;-71
2024/01/29 00:44:11;;;;;;;2.92;2.38;;;6.40;1.00;;;;;;5012783;28;20056;-71
2024/01/29 00:46:40;;;;;;;3.30;2.55;;;6.50;99.90;;;;;;5013211;28;20033;-71
2024/01/29 00:49:06;;;;;;;3.85;2.50;;;6.50;99.90;;;;;;5013306;28;20117;-70
2024/01/29 00:51:32;;;;;;;3.58;2.55;;;6.50;94.60;;;;;;5013145;28;20479;-71
2024/01/29 00:53:58;;;;;;;3.15;2.13;;;6.40;47.40;;;;;;5012780;28;20112;-71
2024/01/29 00:56:23;;;;;;;4.40;2.47;;;6.40;59.60;;;;;;5013224;28;20065;-71
2024/01/29 00:58:49;;;;;;;2.97;2.10;;;6.50;74.70;;;;;;5013250;28;20026;-71
2024/01/29 01:01:14;;;;;;;3.28;2.08;;;6.50;52.50;;;;;;5013037;28;20045;-70
2024/01/29 01:03:40;;;;;;;17.08;12.43;;;6.50;1.00;;;;;;5013162;28;20048;-71
2024/01/29 01:06:06;;;;;;;14.80;11.82;;;6.40;1.00;;;;;;5013227;28;20318;-71
2024/01/29 01:08:31;;;;;;;11.13;8.50;;;6.40;1.00;;;;;;5013174;28;20129;-71
2024/01/29 01:10:57;;;;;;;9.38;7.10;;;6.30;1.00;;;;;;5012618;28;20463;-71
2024/01/29 01:13:22;;;;;;;12.57;9.13;;;6.20;1.00;;;;;;5013013;28;20030;-71
2024/01/29 01:15:48;;;;;;;7.45;4.82;;;6.10;1.00;;;;;;5013093;28;20427;-71
2024/01/29 01:18:13;;;;;;;4.15;3.47;;;6.10;1.00;;;;;;5013104;28;20034;-71
2024/01/29 01:20:39;;;;;;;4.50;2.85;;;6.10;1.00;;;;;;5013120;28;20026;-71
2024/01/29 01:23:05;;;;;;;6.35;4.50;;;6.10;1.00;;;;;;5012890;28;20030;-71
2024/01/29 01:25:30;;;;;;;4.28;2.80;;;6.00;1.00;;;;;;5012883;28;20029;-71
2024/01/29 01:27:56;;;;;;;6.35;3.97;;;5.90;99.90;;;;;;5012953;28;20030;-71
2024/01/29 01:30:22;;;;;;;5.18;3.45;;;5.70;99.90;;;;;;5015582;28;20022;-71
2024/01/29 01:32:48;;;;;;;3.70;2.63;;;5.60;99.90;;;;;;5016400;28;20033;-71
2024/01/29 01:35:14;;;;;;;5.47;2.65;;;5.50;99.90;;;;;;5016418;28;20067;-71
2024/01/29 01:37:39;;;;;;;4.95;2.40;;;5.40;99.90;;;;;;5016476;28;20026;-71
2024/01/29 01:40:05;;;;;;;4.32;2.08;;;5.20;1.00;;;;;;5016569;28;20089;-71
2024/01/29 01:42:31;;;;;;;6.43;3.13;;;5.20;1.00;;;;;;5016423;28;20034;-71
2024/01/29 01:44:56;;;;;;;3.72;2.13;;;5.10;99.90;;;;;;5015918;28;20420;-71
2024/01/29 01:47:22;;;;;;;2.42;1.92;;;4.90;99.90;;;;;;5015919;28;20069;-71
2024/01/29 01:49:48;;;;;;;4.07;2.10;;;4.80;2.60;;;;;;5016233;28;20049;-71
2024/01/29 01:52:16;;;;;;;3.97;2.78;;;4.80;63.20;;;;;;5015873;28;20446;-72
2024/01/29 01:54:43;;;;;;;2.70;2.05;;;4.70;60.00;;;;;;5015740;28;20579;-70
2024/01/29 01:57:09;;;;;;;3.83;2.10;;;4.50;99.90;;;;;;5016188;28;20056;-71
2024/01/29 01:59:38;;;;;;;3.08;2.40;;;4.40;1.00;;;;;;5016121;28;20030;-71
2024/01/29 02:02:04;;;;;;;3.17;2.22;;;4.30;1.00;;;;;;5016037;28;20030;-71
2024/01/29 02:04:29;;;;;;;4.90;2.40;;;4.10;1.00;;;;;;5015522;28;20099;-71
2024/01/29 02:06:55;;;;;;;3.25;2.10;;;4.10;99.90;;;;;;5015901;28;20042;-71
2024/01/29 02:09:21;;;;;;;4.03;2.42;;;4.00;1.00;;;;;;5015434;28;20026;-71
2024/01/29 02:11:47;;;;;;;3.97;2.10;;;4.00;99.90;;;;;;5015673;28;20060;-70
2024/01/29 02:14:12;;;;;;;3.10;2.15;;;4.00;1.00;;;;;;5015413;28;20026;-71
2024/01/29 02:16:38;;;;;;;3.33;2.13;;;4.00;2.50;;;;;;5015773;28;20033;-71
2024/01/29 02:19:14;;;;;;;3.88;2.28;;;4.00;1.00;;;;;;5015372;28;20529;-71
2024/01/29 02:21:40;;;;;;;2.95;2.00;;;3.90;1.00;;;;;;5015755;28;20049;-71
2024/01/29 02:24:05;;;;;;;3.88;2.25;;;3.80;80.50;;;;;;5015790;28;20472;-71
2024/01/29 02:26:31;;;;;;;3.03;2.00;;;3.70;99.90;;;;;;5015536;28;20120;-71
2024/01/29 02:28:57;;;;;;;4.18;2.25;;;3.60;99.90;;;;;;5015613;28;20034;-71
2024/01/29 02:31:23;;;;;;;4.20;2.40;;;3.60;99.90;;;;;;5015307;28;20125;-71
2024/01/29 02:33:49;;;;;;;4.13;2.20;;;3.60;99.90;;;;;;5015501;28;20022;-71
2024/01/29 02:36:14;;;;;;;4.50;2.28;;;3.50;1.00;;;;;;5015436;28;20025;-71
2024/01/29 02:38:40;;;;;;;5.05;2.47;;;3.50;87.30;;;;;;5015313;28;20116;-71
2024/01/29 02:41:06;;;;;;;3.83;2.55;;;3.40;99.90;;;;;;5014350;28;20064;-71
2024/01/29 02:43:31;;;;;;;3.08;2.20;;;3.30;1.00;;;;;;5014955;28;20471;-71
2024/01/29 02:45:56;;;;;;;3.00;2.08;;;3.20;99.90;;;;;;5015221;28;20523;-71
2024/01/29 02:48:22;;;;;;;3.65;2.35;;;3.10;1.00;;;;;;5015191;28;20057;-71
2024/01/29 02:50:48;;;;;;;6.35;2.35;;;3.00;1.00;;;;;;5014761;28;20036;-71
2024/01/29 02:53:13;;;;;;;3.13;2.17;;;3.00;1.00;;;;;;5014775;28;20029;-71
2024/01/29 02:55:39;;;;;;;4.13;2.20;;;2.90;1.00;;;;;;5015100;28;20105;-70
2024/01/29 02:58:04;;;;;;;3.72;2.30;;;2.90;1.00;;;;;;5014706;28;20503;-71
2024/01/29 03:00:31;;;;;;;3.33;2.22;;;2.90;1.00;;;;;;5014964;28;20103;-71
2024/01/29 03:02:57;;;;;;;3.05;2.08;;;2.90;1.00;;;;;;5014544;28;20029;-70
2024/01/29 03:05:23;;;;;;;6.15;2.42;;;2.80;1.00;;;;;;5014970;28;20388;-70
2024/01/29 03:07:48;;;;;;;3.60;2.25;;;2.80;99.90;;;;;;5014660;28;20109;-70
2024/01/29 03:10:14;;;;;;;5.07;2.72;;;2.80;99.90;;;;;;5014650;28;20026;-70
2024/01/29 03:12:39;;;;;;;3.38;2.28;;;2.70;99.90;;;;;;5014210;28;20036;-70
2024/01/29 03:15:05;;;;;;;3.78;2.17;;;2.70;1.00;;;;;;5014778;28;20108;-71
2024/01/29 03:17:31;;;;;;;5.13;2.70;;;2.60;99.90;;;;;;5014608;28;20034;-71
2024/01/29 03:19:56;;;;;;;3.88;2.47;;;2.60;78.20;;;;;;5014306;28;20033;-71
2024/01/29 03:22:22;;;;;;;3.80;2.30;;;2.50;33.30;;;;;;5014502;28;20045;-70
2024/01/29 03:24:47;;;;;;;3.55;2.40;;;2.50;1.00;;;;;;5014480;28;20477;-70
2024/01/29 03:27:13;;;;;;;4.68;2.70;;;2.40;78.50;;;;;;5014468;28;20084;-71
2024/01/29 03:29:38;;;;;;;3.13;2.28;;;2.40;87.80;;;;;;5014127;28;20025;-70
2024/01/29 03:32:04;;;;;;;6.03;2.72;;;2.40;99.90;;;;;;5014289;28;20496;-70
2024/01/29 03:34:30;;;;;;;3.58;2.63;;;2.30;99.90;;;;;;5014248;28;20476;-70
2024/01/29 03:36:55;;;;;;;4.18;2.40;;;2.30;99.90;;;;;;5014127;28;20029;-70
2024/01/29 03:39:21;;;;;;;2.72;2.08;;;2.30;99.90;;;;;;5014263;28;20029;-70
2024/01/29 03:41:46;;;;;;;5.75;2.50;;;2.30;99.90;;;;;;5014231;28;20056;-70
2024/01/29 03:44:14;;;;;;;3.80;2.30;;;2.30;99.90;;;;;;5013686;28;20054;-70
2024/01/29 03:46:39;;;;;;;3.50;2.20;;;2.20;99.90;;;;;;5014220;28;20441;-70
2024/01/29 03:49:05;;;;;;;2.83;2.40;;;2.10;99.90;;;;;;5014194;28;20095;-70
2024/01/29 03:51:30;;;;;;;4.00;2.55;;;2.10;99.90;;;;;;5013662;28;20124;-70
2024/01/29 03:53:56;;;;;;;3.90;2.30;;;2.00;99.90;;;;;;5013656;28;20495;-70
2024/01/29 03:56:21;;;;;;;4.35;3.30;;;2.00;99.90;;;;;;5014057;28;20065;-70
2024/01/29 03:58:47;;;;;;;5.22;2.78;;;1.90;1.00;;;;;;5013923;28;20022;-70
2024/01/29 04:01:12;;;;;;;3.20;2.25;;;1.90;1.00;;;;;;5014054;28;20117;-70
2024/01/29 04:03:39;;;;;;;5.28;2.88;;;1.90;1.00;;;;;;5013899;28;20044;-70
2024/01/29 04:06:06;;;;;;;2.95;2.20;;;1.90;1.00;;;;;;5013789;28;20488;-71
2024/01/29 04:08:31;;;;;;;4.40;2.92;;;1.80;1.00;;;;;;5013869;28;20022;-71
2024/01/29 04:10:57;;;;;;;5.47;2.75;;;1.80;1.00;;;;;;5013743;28;20088;-70
2024/01/29 04:13:22;;;;;;;4.28;2.50;;;1.80;1.00;;;;;;5013365;28;20089;-70
2024/01/29 04:15:48;;;;;;;5.53;2.70;;;1.80;1.00;;;;;;5013876;28;20084;-70
2024/01/29 04:18:13;;;;;;;4.00;2.63;;;1.70;1.00;;;;;;5013766;28;20096;-71
2024/01/29 04:20:39;;;;;;;7.00;3.03;;;1.70;1.00;;;;;;5013830;28;20033;-70
2024/01/29 04:23:04;;;;;;;4.25;2.58;;;1.70;1.00;;;;;;5013662;28;20041;-70
2024/01/29 04:25:30;;;;;;;3.30;2.50;;;1.60;21.70;;;;;;5013600;28;20030;-71
2024/01/29 04:27:55;;;;;;;5.93;3.08;;;1.60;81.60;;;;;;5013266;28;20036;-70
2024/01/29 04:30:21;;;;;;;7.97;2.88;;;1.60;44.20;;;;;;5013543;28;20395;-70
2024/01/29 04:32:46;;;;;;;8.70;4.35;;;1.60;73.60;;;;;;5013225;28;20026;-70
2024/01/29 04:35:12;;;;;;;6.13;3.28;;;1.50;99.90;;;;;;5013428;28;20030;-70
2024/01/29 04:37:38;;;;;;;6.65;3.80;;;1.60;99.90;;;;;;5013147;28;20030;-72
2024/01/29 04:40:04;;;;;;;5.82;3.40;;;1.50;99.90;;;;;;5013459;28;20438;-70
2024/01/29 04:42:29;;;;;;;5.88;3.35;;;1.50;99.90;;;;;;5013461;28;20026;-70
2024/01/29 04:44:55;;;;;;;6.65;3.58;;;1.40;99.90;;;;;;5013057;28;20412;-70
2024/01/29 04:47:20;;;;;;;6.57;3.45;;;1.40;99.90;;;;;;5013406;28;20034;-70
2024/01/29 04:49:46;;;;;;;5.97;3.45;;;1.30;99.90;;;;;;5013475;28;20048;-70
2024/01/29 04:52:11;;;;;;;4.88;3.30;;;1.30;99.90;;;;;;5013051;28;20026;-70
2024/01/29 04:54:37;;;;;;;5.85;3.55;;;1.30;99.90;;;;;;5013581;28;20026;-70
2024/01/29 04:57:03;;;;;;;6.45;4.00;;;1.30;99.90;;;;;;5013183;28;20474;-71
2024/01/29 04:59:28;;;;;;;6.57;3.75;;;1.30;99.90;;;;;;5013250;28;20484;-70
2024/01/29 05:01:54;;;;;;;5.90;3.30;;;1.30;99.90;;;;;;5013173;28;20045;-70
2024/01/29 05:04:20;;;;;;;6.43;3.67;;;1.30;99.90;;;;;;5014403;28;20045;-70
2024/01/29 05:06:45;;;;;;;6.13;3.72;;;1.30;99.90;;;;;;5017022;28;20483;-72
2024/01/29 05:09:11;;;;;;;4.93;2.90;;;1.30;99.90;;;;;;5016932;28;20030;-70
2024/01/29 05:11:39;;;;;;;5.40;3.10;;;1.30;99.90;;;;;;5016457;28;20021;-70
2024/01/29 05:14:05;;;;;;;3.55;3.05;;;1.30;99.90;;;;;;5016865;28;20050;-70
2024/01/29 05:16:32;;;;;;;5.45;3.50;;;1.30;99.90;;;;;;5016757;28;20068;-70
2024/01/29 05:18:58;;;;;;;6.93;2.72;;;1.30;99.90;;;;;;5016660;28;20061;-70
2024/01/29 05:21:23;;;;;;;5.85;3.50;;;1.30;99.90;;;;;;5016309;28;20053;-70
2024/01/29 05:23:49;;;;;;;5.18;2.80;;;1.30;99.90;;;;;;5016778;28;20502;-70
2024/01/29 05:26:14;;;;;;;4.93;3.20;;;1.30;99.90;;;;;;5016716;28;20033;-70
2024/01/29 05:28:40;;;;;;;4.75;3.05;;;1.40;99.90;;;;;;5016800;28;20048;-70
2024/01/29 05:31:05;;;;;;;4.38;2.97;;;1.40;99.90;;;;;;5016548;28;20054;-70
2024/01/29 05:33:31;;;;;;;4.63;3.03;;;1.40;99.90;;;;;;5016380;28;20552;-70
2024/01/29 05:35:56;;;;;;;4.70;3.65;;;1.30;99.90;;;;;;5016589;28;20109;-70
2024/01/29 05:38:22;;;;;;;4.05;3.00;;;1.30;99.90;;;;;;5016064;28;20022;-71
2024/01/29 05:40:47;;;;;;;6.43;3.33;;;1.30;99.90;;;;;;5016364;28;20030;-70
2024/01/29 05:43:13;;;;;;;6.25;3.20;;;1.30;99.90;;;;;;5016296;28;20041;-70
2024/01/29 05:45:38;;;;;;;4.68;3.15;;;1.20;99.90;;;;;;5016360;28;20045;-71
2024/01/29 05:48:07;;;;;;;5.32;3.35;;;1.20;99.90;;;;;;5015826;28;20369;-71
2024/01/29 05:50:32;;;;;;;5.13;3.78;;;1.10;99.90;;;;;;5016163;28;20525;-70
2024/01/29 05:52:58;;;;;;;6.30;3.72;;;1.10;99.90;;;;;;5016184;28;20066;-70
2024/01/29 05:55:23;;;;;;;6.32;3.90;;;1.10;99.90;;;;;;5015795;28;20018;-70
2024/01/29 05:57:49;;;;;;;4.80;3.60;;;1.00;99.90;;;;;;5016232;28;20105;-70
2024/01/29 06:00:15;;;;;;;4.35;3.20;;;1.00;99.90;;;;;;5016192;28;20391;-70
2024/01/29 06:02:46;;;;;;;6.00;3.28;;;1.00;99.90;;;;;;5016006;28;20487;-70
2024/01/29 06:05:11;;;;;;;4.35;3.22;;;0.90;99.90;;;;;;5015202;28;20121;-70
2024/01/29 06:07:38;;;;;;;7.97;3.78;;;0.80;99.90;;;;;;5016157;28;20112;-70
2024/01/29 06:10:05;;;;;;;9.35;4.25;;;0.90;99.90;;;;;;5014780;28;20050;-70
2024/01/29 06:12:30;;;;;;;9.45;4.75;;;0.90;99.90;;;;;;5015538;28;20037;-70
2024/01/29 06:14:56;;;;;;;11.80;6.15;;;0.80;99.90;;;;;;5013315;28;20030;-70
2024/01/29 06:17:21;;;;;;;20.90;9.95;;;0.80;99.90;;;;;;5026314;28;20136;-70
2024/01/29 06:19:47;;;;;;;15.68;7.30;;;0.80;99.90;;;;;;5035037;28;20021;-70
2024/01/29 06:22:12;;;;;;;13.50;6.78;;;0.80;99.90;;;;;;5022071;28;20037;-70
2024/01/29 06:24:38;;;;;;;9.20;5.43;;;0.80;99.90;;;;;;4995872;28;20034;-70
2024/01/29 06:27:04;;;;;;;10.10;5.25;;;0.70;99.90;;;;;;5005448;28;20029;-70
2024/01/29 06:29:29;;;;;;;7.10;4.20;;;0.70;99.90;;;;;;5014556;28;20137;-71
2024/01/29 06:31:55;;;;;;;7.80;4.07;;;0.70;99.90;;;;;;5015038;28;20037;-70
2024/01/29 06:34:23;;;;;;;6.57;3.97;;;0.70;99.90;;;;;;5021333;28;20034;-70
2024/01/29 06:36:51;;;;;;;7.90;4.47;;;0.70;99.90;;;;;;5014945;28;20104;-70
2024/01/29 06:39:16;;;;;;;7.10;4.00;;;0.70;99.90;;;;;;5013262;28;20030;-70
2024/01/29 06:41:42;;;;;;;7.88;3.75;;;0.60;99.90;;;;;;5015154;28;20076;-70
2024/01/29 06:44:07;;;;;;;7.63;4.03;;;0.60;99.90;;;;;;5014247;28;20068;-70
2024/01/29 06:46:33;;;;;;;5.68;3.90;;;0.60;99.90;;;;;;5013314;28;20033;-70
2024/01/29 06:48:58;;;;;;;7.03;4.32;;;0.60;99.90;;;;;;5026879;28;20083;-70
2024/01/29 06:51:24;;;;;;;13.88;5.13;;;0.60;99.90;;;;;;5016529;28;20072;-70
2024/01/29 06:53:50;;;;;;;10.13;4.85;;;0.60;99.90;;;;;;5012238;28;20112;-70
2024/01/29 06:56:16;;;;;;;8.98;5.65;;;0.60;99.90;;;;;;5013958;28;20026;-70
2024/01/29 06:58:42;;;;;;;7.45;4.45;;;0.70;99.90;;;;;;5014625;28;20014;-70
2024/01/29 07:01:07;;;;;;;10.23;4.95;;;0.60;99.90;;;;;;5014411;28;20040;-70
2024/01/29 07:03:33;;;;;;;7.25;4.85;;;0.60;99.90;;;;;;5019103;28;20037;-70
2024/01/29 07:05:59;;;;;;;9.18;5.63;;;0.70;99.90;;;;;;5014386;28;20033;-70
2024/01/29 07:08:24;;;;;;;11.02;6.53;;;0.70;99.90;;;;;;5014015;28;20026;-70
2024/01/29 07:10:50;;;;;;;10.95;6.60;;;0.70;99.90;;;;;;5012720;28;20030;-70
2024/01/29 07:13:16;;;;;;;9.45;5.88;;;0.80;99.90;;;;;;5011320;28;20037;-70
2024/01/29 07:15:42;;;;;;;10.90;5.90;;;0.90;99.90;;;;;;5013023;28;20018;-70
2024/01/29 07:18:08;;;;;;;10.82;5.63;;;0.90;99.90;;;;;;5011597;28;20041;-69
2024/01/29 07:20:39;;;;;;;9.48;5.03;;;1.00;99.90;;;;;;5011484;28;20064;-70
2024/01/29 07:23:05;;;;;;;9.82;5.88;;;1.10;99.90;;;;;;5020865;28;20025;-70
2024/01/29 07:25:31;;;;;;;14.23;6.47;;;1.10;99.90;;;;;;5005695;28;20472;-70
2024/01/29 07:27:59;;;;;;;19.00;9.57;;;1.30;99.90;;;;;;5009303;28;20068;-70
2024/01/29 07:30:25;;;;;;;13.32;6.68;;;1.40;99.90;;;;;;5008492;28;20024;-70
2024/01/29 07:32:51;;;;;;;18.65;8.98;;;1.60;99.90;;;;;;5009866;28;20480;-70
2024/01/29 07:35:16;;;;;;;13.02;7.10;;;1.80;99.90;;;;;;5013728;28;20034;-71
2024/01/29 07:37:42;;;;;;;12.90;6.93;;;1.90;99.90;;;;;;5010793;28;20041;-70
2024/01/29 07:40:08;;;;;;;12.70;6.63;;;2.10;99.90;;;;;;5013095;28;20076;-70
2024/01/29 07:42:34;;;;;;;11.48;6.47;;;3.00;99.90;;;;;;5013066;28;20034;-70
2024/01/29 07:45:00;;;;;;;15.18;6.85;;;2.30;99.90;;;;;;5011725;28;20052;-70
2024/01/29 07:47:26;;;;;;;11.98;5.93;;;2.50;99.90;;;;;;5013472;28;20084;-70
2024/01/29 07:49:51;;;;;;;16.45;8.82;;;3.60;99.90;;;;;;5013480;28;20041;-70
2024/01/29 07:52:17;;;;;;;30.02;17.38;;;2.80;99.90;;;;;;5013184;28;20033;-69
2024/01/29 07:54:42;;;;;;;12.35;6.90;;;3.10;99.90;;;;;;5012968;28;20022;-71
2024/01/29 07:57:08;;;;;;;11.82;7.82;;;3.60;99.90;;;;;;5013363;28;20476;-71
2024/01/29 07:59:34;;;;;;;12.10;7.32;;;4.40;99.90;;;;;;5013429;28;20061;-70
2024/01/29 08:01:59;;;;;;;9.70;6.35;;;5.30;99.90;;;;;;5011968;28;20034;-70
2024/01/29 08:04:25;;;;;;;13.07;6.88;;;6.10;99.90;;;;;;5009710;28;20045;-70
2024/01/29 08:06:50;;;;;;;10.52;6.55;;;6.40;99.90;;;;;;5011948;28;20116;-71
2024/01/29 08:09:16;;;;;;;14.93;9.18;;;6.50;99.90;;;;;;5012921;28;20033;-70
2024/01/29 08:11:41;;;;;;;13.43;7.63;;;6.50;99.90;;;;;;5012140;28;20034;-71
2024/01/29 08:14:07;;;;;;;35.53;20.33;;;6.90;99.90;;;;;;5012124;28;20026;-70
2024/01/29 08:16:32;;;;;;;41.25;22.23;;;7.20;1.00;;;;;;5011847;28;20038;-70
2024/01/29 08:19:02;;;;;;;14.38;8.75;;;7.80;1.00;;;;;;5011536;28;20048;-70
2024/01/29 08:21:29;;;;;;;11.88;6.55;;;8.60;1.00;;;;;;5015443;28;20452;-71
2024/01/29 08:23:55;;;;;;;8.25;5.30;;;9.80;99.90;;;;;;5025467;28;20038;-71
2024/01/29 08:26:20;;;;;;;9.82;5.82;;;10.70;99.90;;;;;;5012456;28;20034;-69
2024/01/29 08:28:46;;;;;;;14.60;9.52;;;11.10;99.90;;;;;;5013639;28;20091;-70
2024/01/29 08:31:12;;;;;;;15.43;9.88;;;11.40;99.90;;;;;;5027948;28;20026;-70
2024/01/29 08:33:38;;;;;;;17.17;9.65;;;11.10;99.90;;;;;;5012276;28;20042;-70
2024/01/29 08:36:03;;;;;;;16.92;10.60;;;11.10;99.90;;;;;;5012379;28;20025;-70
2024/01/29 08:38:29;;;;;;;11.85;8.30;;;11.50;99.90;;;;;;5011388;28;20029;-70
2024/01/29 08:40:55;;;;;;;9.90;6.60;;;12.20;99.90;;;;;;5015419;28;20025;-70
2024/01/29 08:43:21;;;;;;;9.80;6.05;;;12.60;99.90;;;;;;5014957;28;20396;-70
2024/01/29 08:45:46;;;;;;;8.07;5.93;;;12.80;99.90;;;;;;5016458;28;20030;-70
2024/01/29 08:48:12;;;;;;;9.05;5.43;;;13.50;99.90;;;;;;5016917;28;20543;-71
2024/01/29 08:50:38;;;;;;;9.25;6.70;;;14.00;99.90;;;;;;5016644;28;20163;-70
2024/01/29 08:53:04;;;;;;;8.38;4.60;;;14.00;99.90;;;;;;5015618;28;20044;-70
2024/01/29 08:55:31;;;;;;;9.50;5.78;;;14.40;99.90;;;;;;5015756;28;20042;-70
2024/01/29 08:57:57;;;;;;;11.45;5.80;;;14.30;99.90;;;;;;5016859;28;20080;-70
2024/01/29 09:00:22;;;;;;;7.47;5.50;;;14.30;99.90;;;;;;5021797;28;20104;-70
2024/01/29 09:02:49;;;;;;;10.70;5.43;;;14.30;99.70;;;;;;5032509;28;20040;-70
2024/01/29 09:05:15;;;;;;;9.48;5.95;;;14.10;99.90;;;;;;5017682;28;20040;-70
2024/01/29 09:07:41;;;;;;;8.20;6.38;;;14.20;99.90;;;;;;5020450;28;20026;-70
2024/01/29 09:10:08;;;;;;;8.57;5.68;;;14.60;99.90;;;;;;5023842;28;20038;-70
2024/01/29 09:12:33;;;;;;;9.65;5.40;;;14.70;98.40;;;;;;5014852;28;20025;-70
2024/01/29 09:14:59;;;;;;;8.00;5.53;;;14.50;98.80;;;;;;5019733;28;20407;-70
2024/01/29 09:17:25;;;;;;;9.77;5.13;;;14.80;99.90;;;;;;5014913;28;20025;-70
2024/01/29 09:19:51;;;;;;;9.32;5.40;;;15.10;99.90;;;;;;5015602;28;20034;-70
2024/01/29 09:22:18;;;;;;;6.90;5.13;;;15.30;99.80;;;;;;5015645;28;20388;-70
2024/01/29 09:24:43;;;;;;;7.00;5.32;;;15.40;98.30;;;;;;5015744;28;20026;-70
2024/01/29 09:27:09;;;;;;;8.45;5.00;;;15.50;97.20;;;;;;5014980;28;20026;-70
2024/01/29 09:29:35;;;;;;;9.10;5.53;;;15.80;97.10;;;;;;5014600;28;20101;-70
2024/01/29 09:32:00;;;;;;;13.48;6.05;;;16.10;95.60;;;;;;5015279;28;20038;-70
2024/01/29 09:34:27;;;;;;;10.45;6.07;;;16.30;95.10;;;;;;5015501;28;20022;-70
2024/01/29 09:36:53;;;;;;;9.52;6.07;;;16.40;95.60;;;;;;5015343;28;20029;-70
2024/01/29 09:39:19;;;;;;;12.35;6.53;;;16.20;95.20;;;;;;5015189;28;20022;-70
2024/01/29 09:41:46;;;;;;;12.48;6.90;;;16.10;94.50;;;;;;5019064;28;20041;-71
2024/01/29 09:44:12;;;;;;;9.48;6.40;;;15.50;95.50;;;;;;5020409;28;20049;-70
2024/01/29 09:46:40;;;;;;;11.10;6.28;;;15.60;96.40;;;;;;5015895;28;20614;-71
2024/01/29 09:49:06;;;;;;;9.02;6.05;;;15.40;97.00;;;;;;5016450;28;20449;-70
2024/01/29 09:51:33;;;;;;;12.90;6.35;;;15.60;97.10;;;;;;5016387;28;20029;-70
2024/01/29 09:54:00;;;;;;;11.02;6.15;;;15.70;96.70;;;;;;5014010;28;20180;-70
2024/01/29 09:56:26;;;;;;;10.82;6.35;;;15.40;96.40;;;;;;5015121;28;20123;-71
2024/01/29 09:58:51;;;;;;;12.80;7.20;;;14.90;97.00;;;;;;5015984;28;20034;-71
2024/01/29 10:01:18;;;;;;;13.00;7.32;;;14.60;99.00;;;;;;5015203;28;20037;-71
2024/01/29 10:03:44;;;;;;;11.90;7.07;;;14.20;99.30;;;;;;5014500;28;20041;-70
2024/01/29 10:06:10;;;;;;;12.32;6.78;;;14.50;98.60;;;;;;5015770;28;20392;-70
2024/01/29 10:08:38;;;;;;;9.30;5.75;;;14.30;99.20;;;;;;5015534;28;20030;-70
2024/01/29 10:11:04;;;;;;;15.27;5.65;;;14.40;99.80;;;;;;5015720;28;20508;-71
2024/01/29 10:13:29;;;;;;;9.38;5.28;;;14.40;99.10;;;;;;5014318;28;20069;-71
2024/01/29 10:15:56;;;;;;;9.10;4.78;;;14.50;99.30;;;;;;5014769;28;20475;-70
2024/01/29 10:18:22;;;;;;;11.80;5.07;;;14.80;98.60;;;;;;5014521;28;20049;-70
2024/01/29 10:20:58;;;;;;;13.57;11.25;;;15.00;98.50;;;;;;5015323;28;20061;-70
2024/01/29 10:23:23;;;;;;;6.72;4.68;;;14.90;99.20;;;;;;5013457;28;20543;-70
2024/01/29 10:25:55;;;;;;;8.20;5.05;;;14.90;98.90;;;;;;5023926;28;20077;-70
2024/01/29 10:28:22;;;;;;;10.70;5.30;;;14.80;99.10;;;;;;5022709;28;20029;-71
2024/01/29 10:30:48;;;;;;;10.57;5.07;;;15.00;99.90;;;;;;5014475;28;20209;-71
2024/01/29 10:33:14;;;;;;;7.30;5.00;;;14.80;99.80;;;;;;5013266;28;20100;-70
2024/01/29 10:35:39;;;;;;;9.82;5.07;;;14.70;99.90;;;;;;5014468;28;20022;-72
2024/01/29 10:38:06;;;;;;;10.38;4.88;;;15.20;99.20;;;;;;5009563;28;20720;-70
2024/01/29 10:40:32;;;;;;;7.07;4.68;;;15.00;99.70;;;;;;5013739;28;20034;-72
2024/01/29 10:42:59;;;;;;;9.68;4.97;;;15.10;99.90;;;;;;5018025;28;20030;-71
2024/01/29 10:45:26;;;;;;;11.63;4.95;;;15.40;99.90;;;;;;5017053;28;20404;-71
2024/01/29 10:48:17;;;;;;;7.38;4.55;;;15.40;99.20;;;;;;5014563;28;20128;-73
2024/01/29 10:50:45;;;;;;;7.80;4.97;;;15.50;99.10;;;;;;5014596;28;20084;-71
2024/01/29 10:53:13;;;;;;;10.93;6.38;;;14.70;99.90;;;;;;5013497;28;20500;-71
2024/01/29 10:55:39;;;;;;;8.00;4.70;;;15.00;99.90;;;;;;5005227;28;20387;-71
2024/01/29 10:58:06;;;;;;;9.27;5.63;;;15.10;99.90;;;;;;5013802;28;20045;-71
2024/01/29 11:00:35;;;;;;;9.77;4.97;;;15.30;99.90;;;;;;5013804;28;20365;-72
2024/01/29 11:03:03;;;;;;;6.72;4.35;;;15.20;99.90;;;;;;5012394;28;20026;-71
2024/01/29 11:05:30;;;;;;;6.32;4.53;;;15.50;99.90;;;;;;5021950;28;20041;-71
2024/01/29 11:07:58;;;;;;;8.45;5.10;;;15.70;99.40;;;;;;5014853;28;20026;-71
2024/01/29 11:10:24;;;;;;;8.65;4.55;;;16.00;99.80;;;;;;5012415;28;20034;-71
2024/01/29 11:12:53;;;;;;;9.23;5.03;;;15.80;98.90;;;;;;5004801;28;20053;-71
2024/01/29 11:15:19;;;;;;;5.78;4.15;;;15.90;99.60;;;;;;5010124;28;20393;-71
2024/01/29 11:17:45;;;;;;;6.82;4.32;;;15.60;99.90;;;;;;5013636;28;20044;-71
2024/01/29 11:20:12;;;;;;;7.03;4.35;;;16.10;99.00;;;;;;5012352;28;20032;-71
2024/01/29 11:22:39;;;;;;;7.90;4.60;;;15.30;99.70;;;;;;5011565;28;20106;-70
2024/01/29 11:25:08;;;;;;;7.97;5.60;;;14.90;99.90;;;;;;5001410;28;20116;-70
2024/01/29 11:27:35;;;;;;;9.05;5.32;;;15.40;99.90;;;;;;5009833;28;20037;-70
2024/01/29 11:30:12;;;;;;;7.18;4.78;;;15.90;99.90;;;;;;5007736;28;20037;-70
2024/01/29 11:32:40;;;;;;;7.45;4.50;;;16.00;99.90;;;;;;5010509;28;20037;-70
2024/01/29 11:35:14;;;;;;;9.27;4.82;;;15.90;99.90;;;;;;5007750;28;20080;-70
2024/01/29 11:37:41;;;;;;;7.72;4.75;;;16.10;99.70;;;;;;5016809;28;20033;-71
2024/01/29 11:40:36;;;;;;;7.15;4.57;;;15.70;99.90;;;;;;5003801;28;20041;-70
2024/01/29 11:43:19;;;;;;;9.80;5.05;;;15.40;99.90;;;;;;5008962;28;20029;-70
2024/01/29 11:45:50;;;;;;;6.63;4.85;;;15.40;99.90;;;;;;5012850;28;20045;-71
2024/01/29 11:48:18;;;;;;;6.20;4.63;;;15.20;99.90;;;;;;5021473;28;20419;-72
2024/01/29 11:50:47;;;;;;;8.02;4.95;;;15.00;99.90;;;;;;5017708;28;20471;-71
2024/01/29 11:53:16;;;;;;;10.40;4.88;;;15.20;99.90;;;;;;5012782;28;20034;-71
2024/01/29 11:55:42;;;;;;;9.23;4.40;;;15.40;99.90;;;;;;5013706;28;20049;-71
2024/01/29 11:58:16;;;;;;;11.82;5.00;;;15.20;99.90;;;;;;5012730;28;20073;-71
2024/01/29 12:00:43;;;;;;;8.60;5.15;;;14.70;99.90;;;;;;5012469;28;20030;-71
2024/01/29 12:03:11;;;;;;;6.60;4.88;;;14.60;99.90;;;;;;5010196;28;20396;-70
2024/01/29 12:05:37;;;;;;;8.27;5.32;;;14.70;99.90;;;;;;5014907;28;20455;-70
2024/01/29 12:08:10;;;;;;;7.28;4.72;;;14.70;99.90;;;;;;5014043;28;20120;-71
2024/01/29 12:10:36;;;;;;;;;;;14.70;99.90;;;;;;5021901;28;20038;-70
2024/01/29 12:13:01;;;;;;;8.38;4.63;;;14.50;99.90;;;;;;5013455;28;19913;-71
2024/01/29 12:15:28;;;;;;;6.65;4.80;;;14.50;99.90;;;;;;5013382;28;20049;-70
2024/01/29 12:17:54;;;;;;;10.95;6.45;;;14.70;99.90;;;;;;5013449;28;20463;-71
2024/01/29 12:20:19;;;;;;;9.23;4.68;;;14.70;99.90;;;;;;5015915;28;20083;-70
2024/01/29 12:22:45;;;;;;;8.95;5.05;;;14.60;99.90;;;;;;5016155;28;20494;-69
2024/01/29 12:25:12;;;;;;;7.30;5.40;;;14.70;99.90;;;;;;5011419;28;20037;-70
2024/01/29 12:27:39;;;;;;;10.52;5.32;;;14.60;99.90;;;;;;5021399;28;20395;-71
2024/01/29 12:30:10;;;;;;;9.00;5.55;;;14.70;99.90;;;;;;5013212;28;20025;-70
2024/01/29 12:32:35;;;;;;;9.10;5.25;;;14.70;99.90;;;;;;5014963;28;20030;-70
2024/01/29 12:35:01;;;;;;;9.85;5.60;;;14.70;99.90;;;;;;5012432;28;20043;-70
2024/01/29 12:37:26;;;;;;;8.98;5.47;;;14.80;99.90;;;;;;5006186;28;20260;-71
2024/01/29 12:39:54;;;;;;;6.28;4.93;;;14.70;99.90;;;;;;5011123;28;20030;-70
2024/01/29 12:42:21;;;;;;;9.90;5.35;;;14.50;99.90;;;;;;5012949;28;20168;-70
2024/01/29 12:44:48;;;;;;;8.13;5.22;;;14.50;99.90;;;;;;5007594;28;20045;-70
2024/01/29 12:47:15;;;;;;;10.77;5.45;;;14.70;99.90;;;;;;5012449;28;20109;-70